Time;durP1;ratioP1;P1;durP2;ratioP2;P2;SDS_P1;SDS_P2;PMS_P1;PMS_P2;Temp;Humidity;BMP_temperature;BMP_pressure;BME280_temperature;BME280_humidity;BME280_pressure;Samples;Min_cycle;Max_cycle;Signal;HPM_P1;HPM_P2
2024/01/04 00:02:11;;;;;;;27.07;25.27;;;;;;;;;;5012975;28;20484;-73
2024/01/04 00:04:40;;;;;;;27.67;26.13;;;;;;;;;;4998983;28;20517;-73
2024/01/04 00:07:08;;;;;;;30.30;28.10;;;;;;;;;;5004620;28;20493;-74
2024/01/04 00:09:36;;;;;;;28.97;27.10;;;;;;;;;;5013074;28;20498;-74
2024/01/04 00:12:03;;;;;;;30.70;28.93;;;;;;;;;;5012480;28;20415;-74
2024/01/04 00:14:30;;;;;;;30.57;28.60;;;;;;;;;;5011220;28;20452;-73
2024/01/04 00:16:57;;;;;;;29.07;27.07;;;;;;;;;;5012440;28;20526;-73
2024/01/04 00:19:24;;;;;;;29.20;27.67;;;;;;;;;;5012612;28;20508;-74
2024/01/04 00:21:51;;;;;;;27.20;25.70;;;;;;;;;;5011639;28;20443;-76
2024/01/04 00:24:19;;;;;;;28.77;27.17;;;;;;;;;;5012781;28;20439;-76
2024/01/04 00:26:46;;;;;;;26.40;25.10;;;;;;;;;;5012228;28;20469;-74
2024/01/04 00:29:13;;;;;;;25.97;24.57;;;;;;;;;;5012443;28;20449;-74
2024/01/04 00:31:41;;;;;;;27.87;26.37;;;;;;;;;;5012119;28;20446;-73
2024/01/04 00:34:08;;;;;;;27.67;26.00;;;;;;;;;;5012617;28;20428;-74
2024/01/04 00:36:35;;;;;;;28.77;27.17;;;;;;;;;;5011960;28;21316;-74
2024/01/04 00:39:02;;;;;;;34.07;31.40;;;;;;;;;;5012589;28;20438;-75
2024/01/04 00:41:30;;;;;;;39.80;37.40;;;;;;;;;;5011586;28;20514;-75
2024/01/04 00:43:57;;;;;;;47.83;44.97;;;;;;;;;;5011849;28;20599;-75
2024/01/04 00:46:25;;;;;;;77.53;72.53;;;;;;;;;;5012258;28;20431;-74
2024/01/04 00:48:52;;;;;;;78.50;74.27;;;;;;;;;;5012255;28;20457;-74
2024/01/04 00:51:19;;;;;;;75.63;71.93;;;;;;;;;;5011371;28;20933;-74
2024/01/04 00:53:46;;;;;;;72.57;68.77;;;;;;;;;;5011752;28;21007;-75
2024/01/04 00:56:13;;;;;;;71.03;67.20;;;;;;;;;;5000775;28;20440;-75
2024/01/04 00:58:41;;;;;;;69.37;66.00;;;;;;;;;;4992372;28;20790;-76
2024/01/04 01:01:09;;;;;;;67.50;64.30;;;;;;;;;;4991416;28;20449;-76
2024/01/04 01:03:36;;;;;;;68.37;65.17;;;;;;;;;;4992525;28;20893;-75
2024/01/04 01:06:03;;;;;;;67.00;63.70;;;;;;;;;;4992428;28;20482;-74
2024/01/04 01:08:30;;;;;;;69.23;65.93;;;;;;;;;;4991463;28;21262;-75
2024/01/04 01:10:57;;;;;;;67.27;64.17;;;;;;;;;;4998600;28;20928;-75
2024/01/04 01:13:24;;;;;;;72.07;68.33;;;;;;;;;;5011694;28;20501;-76
2024/01/04 01:15:52;;;;;;;74.53;70.57;;;;;;;;;;5011219;28;20435;-75
2024/01/04 01:18:19;;;;;;;74.23;70.50;;;;;;;;;;5011415;28;20460;-75
2024/01/04 01:20:46;;;;;;;73.33;69.73;;;;;;;;;;5011089;28;20448;-75
2024/01/04 01:23:14;;;;;;;72.20;68.63;;;;;;;;;;5011657;28;20517;-74
2024/01/04 01:25:40;;;;;;;76.73;73.13;;;;;;;;;;5011398;28;20530;-75
2024/01/04 01:28:07;;;;;;;78.33;74.53;;;;;;;;;;5010854;28;20513;-75
2024/01/04 01:30:34;;;;;;;80.28;76.18;;;;;;;;;;5010301;28;20481;-74
2024/01/04 01:33:03;;;;;;;82.33;78.20;;;;;;;;;;5011491;28;20352;-76
2024/01/04 01:35:30;;;;;;;85.30;81.20;;;;;;;;;;5011163;28;20453;-75
2024/01/04 01:37:57;;;;;;;78.80;75.00;;;;;;;;;;5010218;28;20504;-75
2024/01/04 01:40:24;;;;;;;86.80;82.33;;;;;;;;;;5010372;28;20967;-74
2024/01/04 01:42:51;;;;;;;78.17;74.00;;;;;;;;;;5010381;28;20865;-75
2024/01/04 01:45:18;;;;;;;80.65;76.55;;;;;;;;;;5011208;28;20419;-75
2024/01/04 01:47:46;;;;;;;85.47;81.17;;;;;;;;;;5000129;28;20709;-74
2024/01/04 01:50:15;;;;;;;82.13;78.13;;;;;;;;;;4991302;28;20453;-75
2024/01/04 01:52:42;;;;;;;82.20;77.97;;;;;;;;;;4990393;28;20442;-75
2024/01/04 01:55:11;;;;;;;82.17;77.77;;;;;;;;;;4991179;28;20453;-75
2024/01/04 01:57:38;;;;;;;78.80;74.80;;;;;;;;;;5002433;28;20542;-75
2024/01/04 02:00:06;;;;;;;76.28;72.57;;;;;;;;;;5010701;28;20449;-75
2024/01/04 02:02:34;;;;;;;77.80;73.80;;;;;;;;;;5010092;28;20263;-75
2024/01/04 02:05:02;;;;;;;74.47;70.83;;;;;;;;;;5010637;28;20452;-75
2024/01/04 02:07:30;;;;;;;72.60;69.10;;;;;;;;;;5010136;28;21000;-75
2024/01/04 02:09:57;;;;;;;75.27;71.30;;;;;;;;;;5010627;28;20433;-74
2024/01/04 02:12:24;;;;;;;72.77;69.37;;;;;;;;;;5009665;28;20775;-75
2024/01/04 02:14:54;;;;;;;76.30;72.70;;;;;;;;;;5009680;28;20456;-74
2024/01/04 02:17:21;;;;;;;72.17;68.77;;;;;;;;;;5010044;28;20469;-76
2024/01/04 02:19:48;;;;;;;76.70;72.87;;;;;;;;;;5010365;28;20458;-74
2024/01/04 02:22:17;;;;;;;73.90;70.20;;;;;;;;;;5009658;28;21007;-75
2024/01/04 02:24:45;;;;;;;78.50;74.37;;;;;;;;;;5009873;28;20482;-75
2024/01/04 02:27:12;;;;;;;79.37;75.57;;;;;;;;;;5010454;28;20476;-75
2024/01/04 02:29:39;;;;;;;78.50;74.40;;;;;;;;;;5010391;28;20423;-75
2024/01/04 02:32:06;;;;;;;74.70;70.80;;;;;;;;;;5009896;28;20791;-75
2024/01/04 02:34:33;;;;;;;79.93;75.53;;;;;;;;;;5010211;28;20444;-75
2024/01/04 02:37:00;;;;;;;77.40;73.50;;;;;;;;;;5010171;28;20487;-75
2024/01/04 02:39:27;;;;;;;76.57;72.10;;;;;;;;;;5010037;28;20963;-76
2024/01/04 02:41:56;;;;;;;75.67;72.17;;;;;;;;;;5009516;28;21003;-75
2024/01/04 02:44:23;;;;;;;73.60;70.20;;;;;;;;;;5010097;28;20492;-75
2024/01/04 02:46:50;;;;;;;73.67;70.13;;;;;;;;;;5010019;28;20992;-75
2024/01/04 02:49:16;;;;;;;76.00;71.93;;;;;;;;;;5010207;28;20858;-75
2024/01/04 02:51:43;;;;;;;75.53;71.40;;;;;;;;;;5009852;28;20427;-76
2024/01/04 02:54:10;;;;;;;75.23;71.63;;;;;;;;;;5014123;28;20522;-76
2024/01/04 02:56:37;;;;;;;76.10;72.57;;;;;;;;;;5029522;28;20467;-76
2024/01/04 02:59:07;;;;;;;76.60;72.53;;;;;;;;;;5030109;28;20759;-75
2024/01/04 03:01:34;;;;;;;84.43;80.23;;;;;;;;;;5010422;28;21017;-75
2024/01/04 03:04:01;;;;;;;78.30;74.67;;;;;;;;;;4990255;28;20890;-75
2024/01/04 03:06:30;;;;;;;79.77;75.93;;;;;;;;;;4990648;28;20484;-76
2024/01/04 03:08:57;;;;;;;77.60;74.10;;;;;;;;;;4990101;28;20465;-74
2024/01/04 03:11:24;;;;;;;80.23;76.23;;;;;;;;;;4989876;28;20500;-75
2024/01/04 03:13:51;;;;;;;82.67;78.77;;;;;;;;;;4990453;28;20449;-75
2024/01/04 03:16:21;;;;;;;75.28;71.57;;;;;;;;;;4990233;28;20504;-75
2024/01/04 03:18:48;;;;;;;72.27;68.87;;;;;;;;;;4990450;28;20261;-75
2024/01/04 03:21:15;;;;;;;68.37;64.97;;;;;;;;;;4989768;28;20469;-75
2024/01/04 03:23:42;;;;;;;73.50;69.80;;;;;;;;;;4990226;28;20460;-75
2024/01/04 03:26:09;;;;;;;74.03;70.03;;;;;;;;;;5004909;28;20444;-75
2024/01/04 03:28:36;;;;;;;73.33;69.53;;;;;;;;;;4997063;28;20543;-75
2024/01/04 03:31:03;;;;;;;78.90;75.00;;;;;;;;;;4999018;28;20430;-75
2024/01/04 03:33:31;;;;;;;75.15;70.90;;;;;;;;;;5013668;28;20448;-75
2024/01/04 03:35:58;;;;;;;76.10;72.30;;;;;;;;;;5024384;28;20224;-75
2024/01/04 03:38:25;;;;;;;78.73;75.00;;;;;;;;;;5033249;28;20527;-75
2024/01/04 03:40:52;;;;;;;78.87;75.27;;;;;;;;;;5029392;28;20460;-75
2024/01/04 03:43:19;;;;;;;78.00;74.20;;;;;;;;;;5013085;28;20979;-76
2024/01/04 03:45:46;;;;;;;71.93;68.50;;;;;;;;;;5013285;28;20822;-75
2024/01/04 03:48:13;;;;;;;74.13;70.63;;;;;;;;;;5007280;28;20954;-75
2024/01/04 03:50:42;;;;;;;70.80;67.50;;;;;;;;;;5003743;28;20460;-76
2024/01/04 03:53:09;;;;;;;74.43;70.60;;;;;;;;;;5013485;28;20452;-76
2024/01/04 03:55:36;;;;;;;65.60;61.80;;;;;;;;;;5013233;28;20510;-75
2024/01/04 03:58:02;;;;;;;69.77;66.57;;;;;;;;;;5007715;28;20532;-76
2024/01/04 04:00:29;;;;;;;62.77;59.77;;;;;;;;;;5011815;28;20415;-76
2024/01/04 04:02:57;;;;;;;67.32;64.15;;;;;;;;;;5013315;28;20448;-75
2024/01/04 04:05:23;;;;;;;63.97;61.07;;;;;;;;;;5013023;28;20760;-76
2024/01/04 04:07:52;;;;;;;63.07;59.77;;;;;;;;;;5012848;28;20455;-75
2024/01/04 04:10:19;;;;;;;63.47;60.47;;;;;;;;;;5012944;28;20427;-75
2024/01/04 04:12:46;;;;;;;60.17;57.10;;;;;;;;;;5012544;28;20452;-75
2024/01/04 04:15:13;;;;;;;56.63;54.03;;;;;;;;;;5012967;28;20448;-75
2024/01/04 04:17:40;;;;;;;57.10;54.40;;;;;;;;;;5012534;28;20513;-76
2024/01/04 04:20:07;;;;;;;55.60;52.80;;;;;;;;;;5013135;28;20209;-75
2024/01/04 04:22:34;;;;;;;51.57;49.17;;;;;;;;;;5012324;28;20419;-76
2024/01/04 04:25:02;;;;;;;49.28;46.88;;;;;;;;;;5012607;28;20499;-75
2024/01/04 04:27:29;;;;;;;51.53;48.93;;;;;;;;;;5012928;28;20284;-76
2024/01/04 04:29:56;;;;;;;50.93;48.63;;;;;;;;;;5012731;28;20446;-75
2024/01/04 04:32:24;;;;;;;51.57;49.03;;;;;;;;;;5000862;28;21060;-76
2024/01/04 04:34:51;;;;;;;51.00;48.70;;;;;;;;;;4993035;28;20449;-76
2024/01/04 04:37:17;;;;;;;54.60;51.90;;;;;;;;;;4991604;28;20516;-76
2024/01/04 04:39:44;;;;;;;55.80;53.23;;;;;;;;;;4993082;28;20453;-77
2024/01/04 04:42:13;;;;;;;53.85;51.42;;;;;;;;;;4992612;28;20453;-76
2024/01/04 04:44:40;;;;;;;50.37;48.13;;;;;;;;;;4992524;28;20284;-76
2024/01/04 04:47:07;;;;;;;49.35;47.15;;;;;;;;;;4992450;28;20476;-75
2024/01/04 04:49:34;;;;;;;47.87;45.67;;;;;;;;;;4992784;28;20210;-75
2024/01/04 04:52:01;;;;;;;44.20;42.13;;;;;;;;;;4991691;28;20449;-75
2024/01/04 04:54:27;;;;;;;43.80;41.50;;;;;;;;;;4999822;28;20441;-76
2024/01/04 04:56:54;;;;;;;44.20;41.80;;;;;;;;;;5012061;28;20447;-75
2024/01/04 04:59:23;;;;;;;44.97;42.60;;;;;;;;;;5012086;28;20507;-75
2024/01/04 05:01:50;;;;;;;36.23;34.63;;;;;;;;;;5011331;28;20495;-76
2024/01/04 05:04:17;;;;;;;34.80;33.20;;;;;;;;;;5012046;28;20488;-76
2024/01/04 05:06:44;;;;;;;31.40;30.07;;;;;;;;;;5011965;28;20465;-76
2024/01/04 05:09:11;;;;;;;31.95;30.35;;;;;;;;;;5010992;28;20523;-76
2024/01/04 05:11:38;;;;;;;31.80;30.30;;;;;;;;;;5026589;28;20217;-76
2024/01/04 05:14:04;;;;;;;30.80;29.50;;;;;;;;;;5011067;28;20482;-75
2024/01/04 05:16:33;;;;;;;31.13;29.83;;;;;;;;;;4992122;28;20488;-75
2024/01/04 05:19:00;;;;;;;30.00;28.70;;;;;;;;;;4992260;28;20449;-75
2024/01/04 05:21:32;;;;;;;29.92;28.52;;;;;;;;;;4991302;28;20206;-75
2024/01/04 05:23:59;;;;;;;31.60;30.27;;;;;;;;;;4992275;28;20313;-75
2024/01/04 05:26:26;;;;;;;31.70;30.20;;;;;;;;;;4991801;28;20848;-75
2024/01/04 05:28:53;;;;;;;32.72;31.33;;;;;;;;;;4992071;28;20453;-75
2024/01/04 05:31:21;;;;;;;33.60;32.13;;;;;;;;;;4991392;28;20206;-75
2024/01/04 05:33:49;;;;;;;34.33;32.47;;;;;;;;;;4991585;28;20457;-76
2024/01/04 05:36:16;;;;;;;32.37;30.67;;;;;;;;;;4991828;28;20428;-76
2024/01/04 05:38:43;;;;;;;32.83;31.43;;;;;;;;;;4991849;28;20445;-75
2024/01/04 05:41:10;;;;;;;31.10;29.50;;;;;;;;;;4990537;28;20468;-75
2024/01/04 05:43:37;;;;;;;28.50;27.20;;;;;;;;;;4991496;28;20453;-75
2024/01/04 05:46:04;;;;;;;27.67;26.47;;;;;;;;;;4991706;28;20500;-76
2024/01/04 05:48:31;;;;;;;28.73;27.43;;;;;;;;;;4993571;28;20465;-75
2024/01/04 05:51:00;;;;;;;27.83;26.53;;;;;;;;;;5000189;28;20940;-76
2024/01/04 05:53:27;;;;;;;26.90;25.63;;;;;;;;;;5030756;28;20456;-75
2024/01/04 05:55:54;;;;;;;26.20;25.00;;;;;;;;;;5013729;28;20448;-76
2024/01/04 05:58:21;;;;;;;26.17;25.07;;;;;;;;;;5010901;28;20480;-76
2024/01/04 06:00:48;;;;;;;25.33;24.23;;;;;;;;;;5011911;28;20451;-75
2024/01/04 06:03:16;;;;;;;24.00;23.00;;;;;;;;;;5010613;28;20213;-76
2024/01/04 06:05:43;;;;;;;25.30;24.05;;;;;;;;;;5010864;28;20261;-75
2024/01/04 06:08:12;;;;;;;26.90;25.50;;;;;;;;;;5010589;28;20241;-75
2024/01/04 06:10:39;;;;;;;26.57;25.37;;;;;;;;;;5010405;28;20415;-76
2024/01/04 06:13:07;;;;;;;24.83;23.83;;;;;;;;;;5010976;28;20506;-75
2024/01/04 06:15:34;;;;;;;25.13;24.03;;;;;;;;;;5010231;28;20464;-75
2024/01/04 06:18:01;;;;;;;24.33;23.10;;;;;;;;;;5010581;28;20475;-76
2024/01/04 06:20:28;;;;;;;24.93;23.83;;;;;;;;;;5010368;28;20452;-74
2024/01/04 06:22:55;;;;;;;24.60;23.58;;;;;;;;;;5010333;28;20456;-75
2024/01/04 06:25:23;;;;;;;23.65;22.65;;;;;;;;;;5010721;28;20225;-74
2024/01/04 06:27:51;;;;;;;25.98;24.88;;;;;;;;;;5010691;28;20565;-76
2024/01/04 06:30:18;;;;;;;24.77;23.67;;;;;;;;;;5010468;28;20256;-76
2024/01/04 06:32:45;;;;;;;26.60;25.17;;;;;;;;;;5010193;28;20209;-76
2024/01/04 06:35:12;;;;;;;25.25;24.05;;;;;;;;;;5010501;28;20235;-75
2024/01/04 06:37:39;;;;;;;25.08;23.98;;;;;;;;;;5010397;28;20589;-75
2024/01/04 06:40:08;;;;;;;27.53;25.93;;;;;;;;;;5010582;28;20217;-76
2024/01/04 06:42:36;;;;;;;25.20;24.10;;;;;;;;;;5009738;28;20551;-76
2024/01/04 06:45:04;;;;;;;25.27;23.97;;;;;;;;;;5010062;28;20816;-76
2024/01/04 06:47:31;;;;;;;25.80;24.42;;;;;;;;;;5010012;28;20523;-75
2024/01/04 06:49:58;;;;;;;23.30;22.20;;;;;;;;;;5010326;28;20220;-76
2024/01/04 06:52:25;;;;;;;23.60;22.50;;;;;;;;;;5009246;28;20452;-75
2024/01/04 06:54:52;;;;;;;25.07;23.80;;;;;;;;;;5010240;28;20800;-75
2024/01/04 06:57:19;;;;;;;23.70;22.70;;;;;;;;;;5010005;28;20471;-75
2024/01/04 06:59:47;;;;;;;23.13;22.03;;;;;;;;;;5011092;28;20221;-75
2024/01/04 07:02:15;;;;;;;23.03;22.03;;;;;;;;;;5013789;28;20506;-75
2024/01/04 07:04:42;;;;;;;22.67;21.40;;;;;;;;;;5014721;28;20480;-76
2024/01/04 07:07:09;;;;;;;21.47;20.57;;;;;;;;;;5015707;28;20572;-75
2024/01/04 07:09:37;;;;;;;23.80;22.60;;;;;;;;;;4995099;28;20457;-75
2024/01/04 07:12:05;;;;;;;23.50;22.33;;;;;;;;;;4993900;28;20532;-75
2024/01/04 07:14:37;;;;;;;22.27;21.37;;;;;;;;;;4994876;28;20445;-76
2024/01/04 07:17:07;;;;;;;22.43;21.40;;;;;;;;;;4994502;28;20519;-75
2024/01/04 07:19:34;;;;;;;22.58;21.58;;;;;;;;;;4994473;28;20461;-75
2024/01/04 07:22:01;;;;;;;22.07;21.17;;;;;;;;;;4993818;28;20210;-75
2024/01/04 07:24:28;;;;;;;20.20;19.40;;;;;;;;;;4994272;28;20900;-76
2024/01/04 07:26:55;;;;;;;19.77;18.87;;;;;;;;;;4994381;28;20440;-74
2024/01/04 07:29:23;;;;;;;19.90;19.00;;;;;;;;;;5021010;28;20456;-75
2024/01/04 07:31:50;;;;;;;19.10;18.23;;;;;;;;;;5010881;28;20967;-75
2024/01/04 07:34:18;;;;;;;18.53;17.50;;;;;;;;;;4998678;28;20509;-75
2024/01/04 07:36:45;;;;;;;17.95;17.05;;;;;;;;;;5001957;28;20468;-75
2024/01/04 07:39:12;;;;;;;18.13;17.42;;;;;;;;;;5013530;28;20666;-74
2024/01/04 07:41:40;;;;;;;18.25;17.45;;;;;;;;;;5012965;28;20519;-75
2024/01/04 07:44:07;;;;;;;18.17;17.27;;;;;;;;;;5013416;28;20214;-75
2024/01/04 07:46:34;;;;;;;18.33;17.53;;;;;;;;;;5005675;28;20508;-75
2024/01/04 07:49:03;;;;;;;19.07;18.13;;;;;;;;;;5017762;28;20509;-75
2024/01/04 07:51:32;;;;;;;18.80;18.00;;;;;;;;;;5017235;28;20955;-76
2024/01/04 07:53:59;;;;;;;17.70;16.90;;;;;;;;;;5032488;28;20204;-75
2024/01/04 07:56:26;;;;;;;17.07;16.37;;;;;;;;;;5032666;28;20726;-74
2024/01/04 07:58:54;;;;;;;17.77;17.07;;;;;;;;;;5033191;28;20484;-75
2024/01/04 08:01:21;;;;;;;18.40;17.60;;;;;;;;;;5031736;28;20940;-75
2024/01/04 08:03:48;;;;;;;17.63;16.83;;;;;;;;;;5019623;28;20972;-76
2024/01/04 08:06:14;;;;;;;18.33;17.00;;;;;;;;;;4992852;28;21086;-75
2024/01/04 08:08:43;;;;;;;18.37;17.57;;;;;;;;;;4992923;28;21083;-75
2024/01/04 08:11:10;;;;;;;18.80;17.80;;;;;;;;;;4992985;28;20445;-76
2024/01/04 08:13:38;;;;;;;18.60;17.80;;;;;;;;;;4993785;28;20477;-75
2024/01/04 08:16:05;;;;;;;18.23;17.23;;;;;;;;;;4993203;28;20450;-75
2024/01/04 08:18:32;;;;;;;18.37;17.57;;;;;;;;;;4993485;28;20477;-76
2024/01/04 08:20:59;;;;;;;19.20;17.90;;;;;;;;;;5011418;28;20422;-76
2024/01/04 08:23:26;;;;;;;18.27;17.27;;;;;;;;;;5032483;28;20447;-75
2024/01/04 08:25:55;;;;;;;18.50;17.60;;;;;;;;;;5032491;28;20486;-75
2024/01/04 08:28:22;;;;;;;17.70;16.90;;;;;;;;;;5032102;28;20468;-76
2024/01/04 08:30:49;;;;;;;18.10;17.30;;;;;;;;;;5031943;28;20443;-75
2024/01/04 08:33:16;;;;;;;20.43;19.23;;;;;;;;;;5032470;28;20444;-76
2024/01/04 08:35:43;;;;;;;18.90;18.10;;;;;;;;;;5032122;28;20447;-76
2024/01/04 08:38:10;;;;;;;19.30;18.20;;;;;;;;;;5032262;28;20522;-75
2024/01/04 08:40:39;;;;;;;19.57;18.77;;;;;;;;;;5031718;28;20517;-76
2024/01/04 08:43:07;;;;;;;19.47;18.37;;;;;;;;;;5032235;28;20459;-76
2024/01/04 08:45:34;;;;;;;19.10;18.03;;;;;;;;;;5032076;28;20479;-75
2024/01/04 08:48:01;;;;;;;19.70;18.70;;;;;;;;;;5031705;28;20519;-76
2024/01/04 08:50:28;;;;;;;18.83;17.97;;;;;;;;;;5030334;28;20497;-77
2024/01/04 08:52:55;;;;;;;18.87;17.87;;;;;;;;;;5012478;28;20507;-77
2024/01/04 08:55:22;;;;;;;18.77;17.33;;;;;;;;;;5012459;28;20454;-77
2024/01/04 08:57:49;;;;;;;18.97;18.07;;;;;;;;;;5011912;28;20479;-76
2024/01/04 09:00:18;;;;;;;18.60;17.57;;;;;;;;;;5012508;28;20469;-79
2024/01/04 09:02:46;;;;;;;19.30;18.07;;;;;;;;;;5001142;28;20455;-80
2024/01/04 09:05:13;;;;;;;18.70;17.80;;;;;;;;;;5012851;28;20523;-79
2024/01/04 09:07:40;;;;;;;18.90;18.00;;;;;;;;;;5008023;28;20459;-76
2024/01/04 09:10:08;;;;;;;19.25;18.00;;;;;;;;;;4997372;28;21304;-80
2024/01/04 09:12:35;;;;;;;18.70;17.70;;;;;;;;;;5017362;28;20287;-80
2024/01/04 09:15:02;;;;;;;19.70;18.50;;;;;;;;;;5017613;28;20452;-81
2024/01/04 09:17:30;;;;;;;18.93;18.03;;;;;;;;;;5017483;28;20472;-82
2024/01/04 09:19:57;;;;;;;18.50;17.60;;;;;;;;;;5020750;28;20950;-81
2024/01/04 09:22:25;;;;;;;18.60;17.60;;;;;;;;;;5019197;28;21109;-81
2024/01/04 09:24:51;;;;;;;18.70;17.50;;;;;;;;;;4997686;28;20505;-80
2024/01/04 09:27:19;;;;;;;18.40;17.43;;;;;;;;;;5000388;28;20954;-75
2024/01/04 09:29:47;;;;;;;20.33;18.93;;;;;;;;;;5009980;28;20431;-75
2024/01/04 09:32:14;;;;;;;19.40;18.27;;;;;;;;;;5010606;28;20583;-76
2024/01/04 09:34:42;;;;;;;20.20;19.00;;;;;;;;;;5011452;28;20799;-76
2024/01/04 09:37:09;;;;;;;19.90;18.20;;;;;;;;;;5011469;28;20461;-75
2024/01/04 09:39:37;;;;;;;19.03;18.03;;;;;;;;;;5011513;28;20557;-75
2024/01/04 09:42:06;;;;;;;19.30;18.40;;;;;;;;;;5010983;28;20467;-75
2024/01/04 09:44:34;;;;;;;19.30;18.23;;;;;;;;;;5011576;28;20467;-75
2024/01/04 09:47:04;;;;;;;19.73;18.60;;;;;;;;;;5011277;28;20473;-75
2024/01/04 09:49:32;;;;;;;19.80;18.50;;;;;;;;;;5010608;28;20484;-75
2024/01/04 09:52:00;;;;;;;19.30;18.30;;;;;;;;;;5012306;28;20445;-75
2024/01/04 09:54:29;;;;;;;19.40;18.30;;;;;;;;;;5021529;28;20469;-75
2024/01/04 09:56:56;;;;;;;19.67;18.27;;;;;;;;;;5011639;28;20467;-79
2024/01/04 09:59:24;;;;;;;19.10;18.20;;;;;;;;;;5011855;28;20489;-75
2024/01/04 10:01:51;;;;;;;18.97;18.00;;;;;;;;;;5008547;28;20468;-75
2024/01/04 10:04:18;;;;;;;19.30;18.30;;;;;;;;;;5007590;28;21459;-75
2024/01/04 10:06:46;;;;;;;19.80;18.70;;;;;;;;;;5007950;28;20500;-75
2024/01/04 10:09:16;;;;;;;19.20;18.20;;;;;;;;;;5010863;28;20857;-75
2024/01/04 10:11:52;;;;;;;22.33;20.80;;;;;;;;;;5010871;28;20185;-75
2024/01/04 10:14:19;;;;;;;21.60;20.30;;;;;;;;;;5011164;28;20434;-75
2024/01/04 10:16:48;;;;;;;19.77;18.87;;;;;;;;;;5010871;28;20442;-76
2024/01/04 10:19:15;;;;;;;20.60;19.10;;;;;;;;;;5011196;28;20485;-75
2024/01/04 10:21:42;;;;;;;18.33;17.37;;;;;;;;;;5010597;28;20448;-75
2024/01/04 10:24:13;;;;;;;20.50;19.00;;;;;;;;;;5023860;28;20835;-75
2024/01/04 10:26:42;;;;;;;19.30;18.03;;;;;;;;;;5029519;28;20503;-76
2024/01/04 10:29:09;;;;;;;19.30;18.20;;;;;;;;;;5029815;28;20422;-76
2024/01/04 10:31:36;;;;;;;18.40;17.43;;;;;;;;;;5029865;28;20461;-75
2024/01/04 10:34:03;;;;;;;19.83;18.63;;;;;;;;;;5029628;28;21221;-76
2024/01/04 10:36:32;;;;;;;19.30;18.20;;;;;;;;;;5030457;28;20278;-75
2024/01/04 10:39:00;;;;;;;19.37;18.20;;;;;;;;;;5030909;28;21029;-75
2024/01/04 10:41:28;;;;;;;18.80;17.80;;;;;;;;;;5034245;28;20455;-75
2024/01/04 10:44:05;;;;;;;19.13;18.23;;;;;;;;;;5030493;28;20468;-75
2024/01/04 10:46:34;;;;;;;19.33;18.23;;;;;;;;;;5030538;28;20560;-75
2024/01/04 10:49:02;;;;;;;19.43;18.20;;;;;;;;;;5030377;28;20946;-75
2024/01/04 10:51:30;;;;;;;19.93;18.70;;;;;;;;;;5029955;28;20454;-75
2024/01/04 10:53:59;;;;;;;19.90;18.70;;;;;;;;;;5030102;28;20478;-76
2024/01/04 10:56:27;;;;;;;18.33;17.33;;;;;;;;;;5030187;28;20526;-75
2024/01/04 10:58:55;;;;;;;18.20;17.20;;;;;;;;;;5030107;28;21180;-75
2024/01/04 11:01:23;;;;;;;19.80;18.23;;;;;;;;;;5029491;28;20518;-75
2024/01/04 11:03:50;;;;;;;19.97;18.37;;;;;;;;;;5030412;28;20443;-75
2024/01/04 11:06:17;;;;;;;18.97;17.93;;;;;;;;;;5030098;28;20512;-75
2024/01/04 11:08:44;;;;;;;19.30;18.20;;;;;;;;;;5030117;28;20913;-75
2024/01/04 11:11:11;;;;;;;19.43;18.03;;;;;;;;;;5029592;28;20443;-75
2024/01/04 11:13:38;;;;;;;19.40;18.10;;;;;;;;;;5030030;28;20939;-75
2024/01/04 11:16:12;;;;;;;19.30;18.00;;;;;;;;;;5030326;28;20479;-76
2024/01/04 11:18:51;;;;;;;19.40;18.30;;;;;;;;;;5030036;28;20444;-75
2024/01/04 11:21:28;;;;;;;19.03;18.03;;;;;;;;;;5029365;28;20916;-75
2024/01/04 11:24:03;;;;;;;18.47;17.23;;;;;;;;;;5030082;28;20455;-75
2024/01/04 11:26:35;;;;;;;19.77;18.23;;;;;;;;;;5030041;28;20472;-75
2024/01/04 11:29:06;;;;;;;18.07;17.17;;;;;;;;;;5030279;28;20459;-75
2024/01/04 11:31:33;;;;;;;19.47;18.47;;;;;;;;;;5029515;28;20800;-75
2024/01/04 11:34:05;;;;;;;20.00;18.70;;;;;;;;;;5029725;28;20493;-75
2024/01/04 11:36:32;;;;;;;20.40;18.87;;;;;;;;;;5029613;28;20475;-75
2024/01/04 11:38:59;;;;;;;19.37;18.00;;;;;;;;;;5029857;28;20456;-75
2024/01/04 11:41:35;;;;;;;19.03;17.93;;;;;;;;;;5029280;28;20576;-76
2024/01/04 11:44:03;;;;;;;19.83;18.83;;;;;;;;;;5029993;28;20498;-75
2024/01/04 11:46:30;;;;;;;19.70;18.57;;;;;;;;;;5031632;28;20487;-75
2024/01/04 11:48:58;;;;;;;19.90;18.57;;;;;;;;;;5012311;28;20496;-76
2024/01/04 11:51:41;;;;;;;20.07;18.87;;;;;;;;;;5015598;28;21093;-80
2024/01/04 11:54:10;;;;;;;18.80;17.70;;;;;;;;;;5005716;28;20967;-82
2024/01/04 11:56:37;;;;;;;19.30;18.40;;;;;;;;;;5015247;28;20490;-80
2024/01/04 11:59:08;;;;;;;19.27;18.17;;;;;;;;;;5020870;28;20479;-82
2024/01/04 12:01:37;;;;;;;18.00;17.10;;;;;;;;;;5021088;28;20460;-83
2024/01/04 12:04:11;;;;;;;19.03;18.03;;;;;;;;;;5017988;28;20563;-76
2024/01/04 12:06:39;;;;;;;19.63;18.20;;;;;;;;;;5006194;28;20500;-76
2024/01/04 12:09:07;;;;;;;18.87;17.93;;;;;;;;;;4993369;28;20461;-76
2024/01/04 12:11:34;;;;;;;19.90;18.60;;;;;;;;;;4995406;28;20476;-78
2024/01/04 12:14:01;;;;;;;19.70;18.27;;;;;;;;;;5013304;28;20452;-76
2024/01/04 12:16:28;;;;;;;19.27;17.50;;;;;;;;;;5004632;28;20830;-74
2024/01/04 12:18:55;;;;;;;19.70;18.37;;;;;;;;;;4993379;28;20445;-74
2024/01/04 12:21:22;;;;;;;19.10;18.10;;;;;;;;;;4992944;28;20472;-76
2024/01/04 12:23:51;;;;;;;19.57;17.90;;;;;;;;;;4993356;28;20447;-75
2024/01/04 12:26:19;;;;;;;18.87;17.87;;;;;;;;;;4993086;28;20468;-76
2024/01/04 12:28:46;;;;;;;20.00;18.57;;;;;;;;;;5020655;28;20472;-76
2024/01/04 12:31:13;;;;;;;19.50;18.43;;;;;;;;;;5031875;28;21020;-76
2024/01/04 12:33:44;;;;;;;18.87;17.83;;;;;;;;;;4999291;28;20461;-76
2024/01/04 12:36:11;;;;;;;19.23;18.23;;;;;;;;;;5010650;28;20507;-76
2024/01/04 12:38:38;;;;;;;19.30;18.10;;;;;;;;;;5012955;28;20452;-76
2024/01/04 12:41:06;;;;;;;18.00;17.10;;;;;;;;;;5012282;28;20460;-76
2024/01/04 12:43:33;;;;;;;18.80;17.80;;;;;;;;;;5012638;28;20434;-75
2024/01/04 12:46:04;;;;;;;19.97;18.50;;;;;;;;;;5011628;28;21255;-74
2024/01/04 12:48:31;;;;;;;20.33;18.83;;;;;;;;;;5012512;28;20482;-74
2024/01/04 12:51:06;;;;;;;19.40;18.30;;;;;;;;;;5018194;28;20427;-80
2024/01/04 12:53:33;;;;;;;19.40;18.43;;;;;;;;;;5019023;28;20840;-82
2024/01/04 12:56:00;;;;;;;20.17;19.07;;;;;;;;;;5020016;28;20427;-80
2024/01/04 12:58:29;;;;;;;19.10;17.90;;;;;;;;;;5015750;28;20987;-75
2024/01/04 13:00:56;;;;;;;19.00;18.10;;;;;;;;;;5008334;28;20457;-82
2024/01/04 13:03:24;;;;;;;19.70;18.10;;;;;;;;;;5015971;28;20463;-81
2024/01/04 13:05:53;;;;;;;19.67;18.37;;;;;;;;;;5017617;28;20495;-76
2024/01/04 13:08:20;;;;;;;19.83;18.67;;;;;;;;;;5015053;28;20468;-82
2024/01/04 13:10:47;;;;;;;19.53;18.33;;;;;;;;;;5017865;28;20433;-87
2024/01/04 13:13:14;;;;;;;19.47;18.00;;;;;;;;;;5018451;28;20539;-77
2024/01/04 13:15:43;;;;;;;19.50;18.40;;;;;;;;;;5020634;28;20564;-73
2024/01/04 13:18:10;;;;;;;19.37;18.27;;;;;;;;;;4992464;28;20441;-75
2024/01/04 13:20:38;;;;;;;19.30;18.10;;;;;;;;;;4991704;28;20788;-75
2024/01/04 13:23:06;;;;;;;19.60;18.43;;;;;;;;;;4998115;28;20558;-75
2024/01/04 13:25:33;;;;;;;19.57;18.47;;;;;;;;;;4995700;28;20487;-75
2024/01/04 13:28:00;;;;;;;19.03;17.93;;;;;;;;;;4992027;28;20497;-75
2024/01/04 13:30:28;;;;;;;18.90;17.80;;;;;;;;;;4992136;28;20465;-75
2024/01/04 13:32:56;;;;;;;19.50;18.17;;;;;;;;;;5002098;28;20455;-76
2024/01/04 13:35:23;;;;;;;19.53;18.30;;;;;;;;;;5011750;28;20937;-75
2024/01/04 13:37:50;;;;;;;19.90;18.70;;;;;;;;;;5016322;28;20479;-75
2024/01/04 13:40:17;;;;;;;19.83;18.27;;;;;;;;;;5031711;28;20443;-76
2024/01/04 13:42:45;;;;;;;19.30;18.13;;;;;;;;;;5031682;28;20452;-75
2024/01/04 13:45:12;;;;;;;19.03;17.93;;;;;;;;;;5000235;28;20442;-73
2024/01/04 13:47:39;;;;;;;18.90;17.67;;;;;;;;;;5011931;28;20559;-79
2024/01/04 13:50:08;;;;;;;18.93;17.83;;;;;;;;;;5003985;28;20434;-79
2024/01/04 13:52:35;;;;;;;25.03;18.40;;;;;;;;;;5016217;28;20452;-81
2024/01/04 13:55:02;;;;;;;19.63;18.43;;;;;;;;;;5017592;28;20866;-80
2024/01/04 13:57:29;;;;;;;19.83;18.60;;;;;;;;;;5015470;28;20820;-74
2024/01/04 13:59:56;;;;;;;21.70;19.60;;;;;;;;;;5011900;28;20452;-73
2024/01/04 14:02:23;;;;;;;19.93;18.93;;;;;;;;;;5020476;28;20456;-73
2024/01/04 14:04:49;;;;;;;20.40;19.20;;;;;;;;;;5028050;28;20859;-74
2024/01/04 14:07:17;;;;;;;19.50;18.40;;;;;;;;;;5011155;28;20492;-74
2024/01/04 14:09:45;;;;;;;21.20;19.60;;;;;;;;;;5011260;28;20437;-74
2024/01/04 14:12:12;;;;;;;20.13;18.93;;;;;;;;;;5010792;28;20452;-74
2024/01/04 14:14:39;;;;;;;19.80;18.60;;;;;;;;;;5011222;28;20542;-74
2024/01/04 14:17:06;;;;;;;20.70;19.30;;;;;;;;;;5010730;28;20525;-74
2024/01/04 14:19:33;;;;;;;20.33;19.10;;;;;;;;;;5011093;28;20466;-73